Terminal Aerodrome Forecast
Issued by NWS Wilmington, OH

Current Version | Previous Version | Graphics & Text | Print | Product List | Glossary On
Versions: 1 2 3 4 5 6 7 8 9 10 11 12 13 14 15 16 17
000
FTUS41 KILN 241700
TAFDAY
TAF
KDAY 241720Z 2418/2518 17011KT 4SM BR OVC008
      TEMPO 2418/2420 2SM -DZ BR OVC004
     FM242000 23016G24KT 4SM -RA BR OVC008
     FM242100 26020G35KT P6SM -RA OVC008
     FM250200 24016G28KT P6SM VCSH OVC012
     FM251200 24012G21KT P6SM BKN020=

USA.gov is the U.S. government's official web portal to all federal, state and local government web resources and services.